sensor_id;sensor_type;location;lat;lon;timestamp;P1;durP1;ratioP1;P2;durP2;ratioP2
64799;SDS011;51233;51.982;4.594;2023-08-08T00:00:52;11.20;;;3.00;;
64799;SDS011;51233;51.982;4.594;2023-08-08T00:03:52;11.73;;;3.60;;
64799;SDS011;51233;51.982;4.594;2023-08-08T00:06:53;12.60;;;3.10;;
64799;SDS011;51233;51.982;4.594;2023-08-08T00:09:53;9.07;;;2.83;;
64799;SDS011;51233;51.982;4.594;2023-08-08T00:12:53;14.13;;;3.07;;
64799;SDS011;51233;51.982;4.594;2023-08-08T00:15:53;9.27;;;2.47;;
64799;SDS011;51233;51.982;4.594;2023-08-08T00:18:53;10.70;;;2.72;;
64799;SDS011;51233;51.982;4.594;2023-08-08T00:21:54;13.90;;;3.00;;
64799;SDS011;51233;51.982;4.594;2023-08-08T00:24:54;11.17;;;2.50;;
64799;SDS011;51233;51.982;4.594;2023-08-08T00:27:54;9.10;;;2.20;;
64799;SDS011;51233;51.982;4.594;2023-08-08T00:30:55;12.33;;;2.50;;
64799;SDS011;51233;51.982;4.594;2023-08-08T00:33:55;9.63;;;2.53;;
64799;SDS011;51233;51.982;4.594;2023-08-08T00:36:55;9.40;;;1.83;;
64799;SDS011;51233;51.982;4.594;2023-08-08T00:39:56;6.77;;;1.97;;
64799;SDS011;51233;51.982;4.594;2023-08-08T00:42:56;7.43;;;2.40;;
64799;SDS011;51233;51.982;4.594;2023-08-08T00:45:56;8.15;;;1.60;;
64799;SDS011;51233;51.982;4.594;2023-08-08T00:48:57;7.10;;;2.00;;
64799;SDS011;51233;51.982;4.594;2023-08-08T00:51:57;4.57;;;1.60;;
64799;SDS011;51233;51.982;4.594;2023-08-08T00:54:57;10.57;;;2.07;;
64799;SDS011;51233;51.982;4.594;2023-08-08T00:58:01;6.40;;;2.13;;
64799;SDS011;51233;51.982;4.594;2023-08-08T01:01:01;4.30;;;1.80;;
64799;SDS011;51233;51.982;4.594;2023-08-08T01:04:03;6.25;;;1.90;;
64799;SDS011;51233;51.982;4.594;2023-08-08T01:07:20;3.70;;;1.40;;
64799;SDS011;51233;51.982;4.594;2023-08-08T01:10:25;5.15;;;1.60;;
64799;SDS011;51233;51.982;4.594;2023-08-08T01:13:26;4.10;;;1.88;;
64799;SDS011;51233;51.982;4.594;2023-08-08T01:16:30;5.38;;;1.63;;
64799;SDS011;51233;51.982;4.594;2023-08-08T01:19:30;3.28;;;1.58;;
64799;SDS011;51233;51.982;4.594;2023-08-08T01:22:43;4.47;;;1.70;;
64799;SDS011;51233;51.982;4.594;2023-08-08T01:25:44;2.00;;;1.42;;
64799;SDS011;51233;51.982;4.594;2023-08-08T01:28:45;4.05;;;1.67;;
64799;SDS011;51233;51.982;4.594;2023-08-08T01:31:45;3.43;;;1.73;;
64799;SDS011;51233;51.982;4.594;2023-08-08T01:34:46;2.87;;;1.50;;
64799;SDS011;51233;51.982;4.594;2023-08-08T01:37:51;2.70;;;1.30;;
64799;SDS011;51233;51.982;4.594;2023-08-08T01:40:52;1.45;;;1.15;;
64799;SDS011;51233;51.982;4.594;2023-08-08T01:43:58;1.55;;;1.20;;
64799;SDS011;51233;51.982;4.594;2023-08-08T01:46:58;2.93;;;1.33;;
64799;SDS011;51233;51.982;4.594;2023-08-08T01:49:58;1.83;;;1.13;;
64799;SDS011;51233;51.982;4.594;2023-08-08T01:52:59;3.33;;;1.23;;
64799;SDS011;51233;51.982;4.594;2023-08-08T01:56:00;4.00;;;1.60;;
64799;SDS011;51233;51.982;4.594;2023-08-08T02:02:01;1.20;;;1.10;;
64799;SDS011;51233;51.982;4.594;2023-08-08T02:05:01;2.53;;;1.30;;
64799;SDS011;51233;51.982;4.594;2023-08-08T02:08:01;1.63;;;1.30;;
64799;SDS011;51233;51.982;4.594;2023-08-08T02:11:04;3.83;;;1.50;;
64799;SDS011;51233;51.982;4.594;2023-08-08T02:14:05;1.77;;;1.20;;
64799;SDS011;51233;51.982;4.594;2023-08-08T02:17:05;3.35;;;1.30;;
64799;SDS011;51233;51.982;4.594;2023-08-08T02:20:05;6.00;;;1.37;;
64799;SDS011;51233;51.982;4.594;2023-08-08T02:23:06;4.50;;;1.50;;
64799;SDS011;51233;51.982;4.594;2023-08-08T02:26:07;5.50;;;1.40;;
64799;SDS011;51233;51.982;4.594;2023-08-08T02:29:07;2.85;;;1.40;;
64799;SDS011;51233;51.982;4.594;2023-08-08T02:32:08;5.05;;;1.60;;
64799;SDS011;51233;51.982;4.594;2023-08-08T02:35:09;3.30;;;1.10;;
64799;SDS011;51233;51.982;4.594;2023-08-08T02:38:09;1.95;;;1.27;;
64799;SDS011;51233;51.982;4.594;2023-08-08T02:41:09;4.60;;;1.30;;
64799;SDS011;51233;51.982;4.594;2023-08-08T02:44:10;4.57;;;1.40;;
64799;SDS011;51233;51.982;4.594;2023-08-08T02:47:12;2.50;;;1.20;;
64799;SDS011;51233;51.982;4.594;2023-08-08T02:50:13;4.03;;;1.20;;
64799;SDS011;51233;51.982;4.594;2023-08-08T02:53:13;6.90;;;1.30;;
64799;SDS011;51233;51.982;4.594;2023-08-08T02:56:13;4.73;;;1.57;;
64799;SDS011;51233;51.982;4.594;2023-08-08T02:59:16;3.63;;;1.20;;
64799;SDS011;51233;51.982;4.594;2023-08-08T03:02:16;4.22;;;1.00;;
64799;SDS011;51233;51.982;4.594;2023-08-08T03:05:16;1.80;;;1.20;;
64799;SDS011;51233;51.982;4.594;2023-08-08T03:08:17;3.83;;;1.40;;
64799;SDS011;51233;51.982;4.594;2023-08-08T03:11:17;4.57;;;1.10;;
64799;SDS011;51233;51.982;4.594;2023-08-08T03:14:17;5.07;;;1.43;;
64799;SDS011;51233;51.982;4.594;2023-08-08T03:17:17;3.47;;;1.10;;
64799;SDS011;51233;51.982;4.594;2023-08-08T03:20:17;2.33;;;1.20;;
64799;SDS011;51233;51.982;4.594;2023-08-08T03:23:18;12.27;;;1.37;;
64799;SDS011;51233;51.982;4.594;2023-08-08T03:26:18;2.43;;;0.93;;
64799;SDS011;51233;51.982;4.594;2023-08-08T03:29:18;3.37;;;1.07;;
64799;SDS011;51233;51.982;4.594;2023-08-08T03:32:18;1.93;;;1.00;;
64799;SDS011;51233;51.982;4.594;2023-08-08T03:35:19;3.40;;;1.40;;
64799;SDS011;51233;51.982;4.594;2023-08-08T03:38:19;3.10;;;1.03;;
64799;SDS011;51233;51.982;4.594;2023-08-08T03:41:19;1.67;;;1.10;;
64799;SDS011;51233;51.982;4.594;2023-08-08T03:44:20;4.50;;;1.65;;
64799;SDS011;51233;51.982;4.594;2023-08-08T03:47:21;4.70;;;1.40;;
64799;SDS011;51233;51.982;4.594;2023-08-08T03:50:22;2.22;;;1.20;;
64799;SDS011;51233;51.982;4.594;2023-08-08T03:53:22;2.63;;;1.03;;
64799;SDS011;51233;51.982;4.594;2023-08-08T03:56:22;4.13;;;1.00;;
64799;SDS011;51233;51.982;4.594;2023-08-08T03:59:22;2.90;;;1.20;;
64799;SDS011;51233;51.982;4.594;2023-08-08T04:02:28;2.63;;;1.10;;
64799;SDS011;51233;51.982;4.594;2023-08-08T04:05:28;2.78;;;0.90;;
64799;SDS011;51233;51.982;4.594;2023-08-08T04:08:28;3.10;;;1.30;;
64799;SDS011;51233;51.982;4.594;2023-08-08T04:11:29;1.50;;;0.97;;
64799;SDS011;51233;51.982;4.594;2023-08-08T04:14:29;2.97;;;1.20;;
64799;SDS011;51233;51.982;4.594;2023-08-08T04:17:30;1.83;;;1.07;;
64799;SDS011;51233;51.982;4.594;2023-08-08T04:20:30;3.83;;;1.20;;
64799;SDS011;51233;51.982;4.594;2023-08-08T04:23:30;5.15;;;1.27;;
64799;SDS011;51233;51.982;4.594;2023-08-08T04:26:30;2.55;;;1.10;;
64799;SDS011;51233;51.982;4.594;2023-08-08T04:29:30;2.33;;;1.03;;
64799;SDS011;51233;51.982;4.594;2023-08-08T04:32:34;2.93;;;1.13;;
64799;SDS011;51233;51.982;4.594;2023-08-08T04:35:37;2.63;;;1.15;;
64799;SDS011;51233;51.982;4.594;2023-08-08T04:38:37;4.47;;;1.10;;
64799;SDS011;51233;51.982;4.594;2023-08-08T04:41:37;3.45;;;1.00;;
64799;SDS011;51233;51.982;4.594;2023-08-08T04:44:37;4.80;;;1.10;;
64799;SDS011;51233;51.982;4.594;2023-08-08T04:47:37;1.65;;;0.90;;
64799;SDS011;51233;51.982;4.594;2023-08-08T04:50:38;5.73;;;1.63;;
64799;SDS011;51233;51.982;4.594;2023-08-08T04:53:38;1.40;;;1.00;;
64799;SDS011;51233;51.982;4.594;2023-08-08T04:56:39;1.40;;;1.00;;
64799;SDS011;51233;51.982;4.594;2023-08-08T04:59:39;2.93;;;1.20;;
64799;SDS011;51233;51.982;4.594;2023-08-08T05:02:39;2.93;;;1.13;;
64799;SDS011;51233;51.982;4.594;2023-08-08T05:05:41;2.90;;;1.50;;
64799;SDS011;51233;51.982;4.594;2023-08-08T05:08:44;3.17;;;1.20;;
64799;SDS011;51233;51.982;4.594;2023-08-08T05:11:45;3.30;;;1.00;;
64799;SDS011;51233;51.982;4.594;2023-08-08T05:14:45;3.23;;;1.00;;
64799;SDS011;51233;51.982;4.594;2023-08-08T05:17:45;2.43;;;1.00;;
64799;SDS011;51233;51.982;4.594;2023-08-08T05:20:48;2.93;;;1.10;;
64799;SDS011;51233;51.982;4.594;2023-08-08T05:23:51;5.43;;;0.98;;
64799;SDS011;51233;51.982;4.594;2023-08-08T05:26:51;2.17;;;0.90;;
64799;SDS011;51233;51.982;4.594;2023-08-08T05:29:53;4.13;;;1.05;;
64799;SDS011;51233;51.982;4.594;2023-08-08T05:32:53;0.93;;;0.70;;
64799;SDS011;51233;51.982;4.594;2023-08-08T05:35:53;1.30;;;0.97;;
64799;SDS011;51233;51.982;4.594;2023-08-08T05:38:53;3.27;;;1.10;;
64799;SDS011;51233;51.982;4.594;2023-08-08T05:41:54;6.00;;;1.37;;
64799;SDS011;51233;51.982;4.594;2023-08-08T05:44:54;1.30;;;1.00;;
64799;SDS011;51233;51.982;4.594;2023-08-08T05:47:54;2.63;;;1.10;;
64799;SDS011;51233;51.982;4.594;2023-08-08T05:50:55;4.82;;;1.08;;
64799;SDS011;51233;51.982;4.594;2023-08-08T05:53:58;2.47;;;0.77;;
64799;SDS011;51233;51.982;4.594;2023-08-08T05:56:58;2.10;;;0.70;;
64799;SDS011;51233;51.982;4.594;2023-08-08T05:59:59;3.93;;;1.00;;
64799;SDS011;51233;51.982;4.594;2023-08-08T06:02:59;1.60;;;0.90;;
64799;SDS011;51233;51.982;4.594;2023-08-08T06:05:59;1.60;;;0.87;;
64799;SDS011;51233;51.982;4.594;2023-08-08T06:09:06;2.95;;;0.60;;
64799;SDS011;51233;51.982;4.594;2023-08-08T06:12:08;2.35;;;0.90;;
64799;SDS011;51233;51.982;4.594;2023-08-08T06:15:09;2.70;;;0.80;;
64799;SDS011;51233;51.982;4.594;2023-08-08T06:18:09;4.40;;;0.90;;
64799;SDS011;51233;51.982;4.594;2023-08-08T06:21:09;3.27;;;1.10;;
64799;SDS011;51233;51.982;4.594;2023-08-08T06:24:09;5.23;;;1.10;;
64799;SDS011;51233;51.982;4.594;2023-08-08T06:27:10;4.53;;;1.10;;
64799;SDS011;51233;51.982;4.594;2023-08-08T06:30:10;2.93;;;0.87;;
64799;SDS011;51233;51.982;4.594;2023-08-08T06:33:10;1.93;;;0.70;;
64799;SDS011;51233;51.982;4.594;2023-08-08T06:36:10;4.73;;;1.03;;
64799;SDS011;51233;51.982;4.594;2023-08-08T06:39:11;2.70;;;0.87;;
64799;SDS011;51233;51.982;4.594;2023-08-08T06:42:11;4.87;;;1.00;;
64799;SDS011;51233;51.982;4.594;2023-08-08T06:45:11;1.17;;;0.70;;
64799;SDS011;51233;51.982;4.594;2023-08-08T06:48:11;1.80;;;0.80;;
64799;SDS011;51233;51.982;4.594;2023-08-08T06:51:12;1.07;;;0.60;;
64799;SDS011;51233;51.982;4.594;2023-08-08T06:54:12;2.17;;;1.00;;
64799;SDS011;51233;51.982;4.594;2023-08-08T06:57:12;2.47;;;0.60;;
64799;SDS011;51233;51.982;4.594;2023-08-08T07:00:12;1.67;;;0.80;;
64799;SDS011;51233;51.982;4.594;2023-08-08T07:03:13;1.73;;;0.90;;
64799;SDS011;51233;51.982;4.594;2023-08-08T07:06:14;2.05;;;0.88;;
64799;SDS011;51233;51.982;4.594;2023-08-08T07:09:14;1.92;;;1.10;;
64799;SDS011;51233;51.982;4.594;2023-08-08T07:12:15;1.60;;;0.70;;
64799;SDS011;51233;51.982;4.594;2023-08-08T07:15:17;2.55;;;0.55;;
64799;SDS011;51233;51.982;4.594;2023-08-08T07:18:18;4.70;;;0.90;;
64799;SDS011;51233;51.982;4.594;2023-08-08T07:21:18;3.57;;;1.13;;
64799;SDS011;51233;51.982;4.594;2023-08-08T07:24:21;4.40;;;0.77;;
64799;SDS011;51233;51.982;4.594;2023-08-08T07:27:22;1.98;;;0.70;;
64799;SDS011;51233;51.982;4.594;2023-08-08T07:30:23;4.67;;;0.70;;
64799;SDS011;51233;51.982;4.594;2023-08-08T07:33:24;0.85;;;0.65;;
64799;SDS011;51233;51.982;4.594;2023-08-08T07:36:24;1.63;;;0.50;;
64799;SDS011;51233;51.982;4.594;2023-08-08T07:39:24;1.47;;;0.63;;
64799;SDS011;51233;51.982;4.594;2023-08-08T07:42:25;1.10;;;0.60;;
64799;SDS011;51233;51.982;4.594;2023-08-08T07:45:25;2.57;;;0.80;;
64799;SDS011;51233;51.982;4.594;2023-08-08T07:48:26;0.87;;;0.57;;
64799;SDS011;51233;51.982;4.594;2023-08-08T07:51:26;4.40;;;0.90;;
64799;SDS011;51233;51.982;4.594;2023-08-08T07:54:26;1.80;;;0.67;;
64799;SDS011;51233;51.982;4.594;2023-08-08T07:57:26;2.13;;;0.87;;
64799;SDS011;51233;51.982;4.594;2023-08-08T08:00:27;2.03;;;0.70;;
64799;SDS011;51233;51.982;4.594;2023-08-08T08:03:27;1.80;;;0.97;;
64799;SDS011;51233;51.982;4.594;2023-08-08T08:06:27;4.00;;;0.83;;
64799;SDS011;51233;51.982;4.594;2023-08-08T08:09:28;3.83;;;0.80;;
64799;SDS011;51233;51.982;4.594;2023-08-08T08:12:31;1.10;;;0.60;;
64799;SDS011;51233;51.982;4.594;2023-08-08T08:15:31;3.70;;;0.87;;
64799;SDS011;51233;51.982;4.594;2023-08-08T08:18:31;3.20;;;0.80;;
64799;SDS011;51233;51.982;4.594;2023-08-08T08:21:33;2.17;;;0.70;;
64799;SDS011;51233;51.982;4.594;2023-08-08T08:24:34;3.70;;;1.10;;
64799;SDS011;51233;51.982;4.594;2023-08-08T08:27:35;2.50;;;0.80;;
64799;SDS011;51233;51.982;4.594;2023-08-08T08:30:36;3.08;;;0.73;;
64799;SDS011;51233;51.982;4.594;2023-08-08T08:33:37;3.13;;;0.60;;
64799;SDS011;51233;51.982;4.594;2023-08-08T08:36:37;1.20;;;0.50;;
64799;SDS011;51233;51.982;4.594;2023-08-08T08:39:40;3.07;;;0.73;;
64799;SDS011;51233;51.982;4.594;2023-08-08T08:42:40;4.35;;;1.10;;
64799;SDS011;51233;51.982;4.594;2023-08-08T08:45:46;3.63;;;1.00;;
64799;SDS011;51233;51.982;4.594;2023-08-08T08:48:49;1.17;;;0.70;;
64799;SDS011;51233;51.982;4.594;2023-08-08T08:51:50;2.65;;;0.65;;
64799;SDS011;51233;51.982;4.594;2023-08-08T08:54:50;2.47;;;0.80;;
64799;SDS011;51233;51.982;4.594;2023-08-08T08:57:51;0.70;;;0.70;;
64799;SDS011;51233;51.982;4.594;2023-08-08T09:00:52;0.83;;;0.57;;
64799;SDS011;51233;51.982;4.594;2023-08-08T09:03:53;1.97;;;0.70;;
64799;SDS011;51233;51.982;4.594;2023-08-08T09:06:53;3.17;;;0.73;;
64799;SDS011;51233;51.982;4.594;2023-08-08T09:09:54;1.40;;;0.80;;
64799;SDS011;51233;51.982;4.594;2023-08-08T09:12:54;1.47;;;0.80;;
64799;SDS011;51233;51.982;4.594;2023-08-08T09:15:54;3.97;;;0.77;;
64799;SDS011;51233;51.982;4.594;2023-08-08T09:18:55;2.47;;;0.80;;
64799;SDS011;51233;51.982;4.594;2023-08-08T09:21:55;1.25;;;0.80;;
64799;SDS011;51233;51.982;4.594;2023-08-08T09:24:55;1.50;;;0.75;;
64799;SDS011;51233;51.982;4.594;2023-08-08T09:27:55;1.10;;;0.70;;
64799;SDS011;51233;51.982;4.594;2023-08-08T09:30:56;1.40;;;0.80;;
64799;SDS011;51233;51.982;4.594;2023-08-08T09:33:57;1.63;;;0.60;;
64799;SDS011;51233;51.982;4.594;2023-08-08T09:36:58;1.27;;;1.00;;
64799;SDS011;51233;51.982;4.594;2023-08-08T09:39:59;4.27;;;1.00;;
64799;SDS011;51233;51.982;4.594;2023-08-08T09:42:59;2.03;;;0.80;;
64799;SDS011;51233;51.982;4.594;2023-08-08T09:46:02;2.97;;;0.80;;
64799;SDS011;51233;51.982;4.594;2023-08-08T09:49:02;4.27;;;1.07;;
64799;SDS011;51233;51.982;4.594;2023-08-08T09:52:03;5.47;;;1.37;;
64799;SDS011;51233;51.982;4.594;2023-08-08T09:55:04;2.93;;;0.93;;
64799;SDS011;51233;51.982;4.594;2023-08-08T09:58:04;2.23;;;0.90;;
64799;SDS011;51233;51.982;4.594;2023-08-08T10:01:05;0.73;;;0.70;;
64799;SDS011;51233;51.982;4.594;2023-08-08T10:04:05;3.10;;;0.90;;
64799;SDS011;51233;51.982;4.594;2023-08-08T10:07:06;1.53;;;0.77;;
64799;SDS011;51233;51.982;4.594;2023-08-08T10:10:06;0.83;;;0.80;;
64799;SDS011;51233;51.982;4.594;2023-08-08T10:13:07;2.33;;;1.00;;
64799;SDS011;51233;51.982;4.594;2023-08-08T10:16:07;4.23;;;1.00;;
64799;SDS011;51233;51.982;4.594;2023-08-08T10:19:11;1.52;;;0.90;;
64799;SDS011;51233;51.982;4.594;2023-08-08T10:22:11;1.75;;;0.80;;
64799;SDS011;51233;51.982;4.594;2023-08-08T10:25:24;1.13;;;0.90;;
64799;SDS011;51233;51.982;4.594;2023-08-08T10:28:27;1.17;;;0.80;;
64799;SDS011;51233;51.982;4.594;2023-08-08T10:31:32;1.43;;;0.90;;
64799;SDS011;51233;51.982;4.594;2023-08-08T10:34:39;2.08;;;0.98;;
64799;SDS011;51233;51.982;4.594;2023-08-08T10:37:40;1.42;;;0.90;;
64799;SDS011;51233;51.982;4.594;2023-08-08T10:40:42;2.17;;;0.90;;
64799;SDS011;51233;51.982;4.594;2023-08-08T10:43:49;1.27;;;0.75;;
64799;SDS011;51233;51.982;4.594;2023-08-08T10:46:50;4.95;;;1.00;;
64799;SDS011;51233;51.982;4.594;2023-08-08T10:49:58;1.52;;;0.70;;
64799;SDS011;51233;51.982;4.594;2023-08-08T10:52:58;2.78;;;1.00;;
64799;SDS011;51233;51.982;4.594;2023-08-08T10:56:00;1.93;;;1.00;;
64799;SDS011;51233;51.982;4.594;2023-08-08T10:59:11;1.50;;;0.70;;
64799;SDS011;51233;51.982;4.594;2023-08-08T11:02:12;1.42;;;1.10;;
64799;SDS011;51233;51.982;4.594;2023-08-08T11:05:12;1.17;;;0.88;;
64799;SDS011;51233;51.982;4.594;2023-08-08T11:08:14;2.13;;;0.90;;
64799;SDS011;51233;51.982;4.594;2023-08-08T11:11:16;1.00;;;0.80;;
64799;SDS011;51233;51.982;4.594;2023-08-08T11:14:17;2.17;;;0.95;;
64799;SDS011;51233;51.982;4.594;2023-08-08T11:17:17;1.17;;;0.88;;
64799;SDS011;51233;51.982;4.594;2023-08-08T11:20:21;2.13;;;0.93;;
64799;SDS011;51233;51.982;4.594;2023-08-08T11:23:21;1.45;;;0.75;;
64799;SDS011;51233;51.982;4.594;2023-08-08T11:26:22;3.17;;;0.90;;
64799;SDS011;51233;51.982;4.594;2023-08-08T11:29:23;1.25;;;0.93;;
64799;SDS011;51233;51.982;4.594;2023-08-08T11:32:30;2.38;;;0.75;;
64799;SDS011;51233;51.982;4.594;2023-08-08T11:35:30;1.20;;;0.77;;
64799;SDS011;51233;51.982;4.594;2023-08-08T11:38:31;2.40;;;0.80;;
64799;SDS011;51233;51.982;4.594;2023-08-08T11:41:33;2.15;;;0.82;;
64799;SDS011;51233;51.982;4.594;2023-08-08T11:44:36;1.40;;;0.90;;
64799;SDS011;51233;51.982;4.594;2023-08-08T11:47:37;1.27;;;0.80;;
64799;SDS011;51233;51.982;4.594;2023-08-08T11:50:37;1.77;;;0.80;;
64799;SDS011;51233;51.982;4.594;2023-08-08T11:53:49;3.42;;;1.00;;
64799;SDS011;51233;51.982;4.594;2023-08-08T11:56:50;3.37;;;1.23;;
64799;SDS011;51233;51.982;4.594;2023-08-08T11:59:52;1.80;;;0.80;;
64799;SDS011;51233;51.982;4.594;2023-08-08T12:02:52;1.95;;;0.90;;
64799;SDS011;51233;51.982;4.594;2023-08-08T12:05:53;2.00;;;0.90;;
64799;SDS011;51233;51.982;4.594;2023-08-08T12:08:53;3.80;;;1.00;;
64799;SDS011;51233;51.982;4.594;2023-08-08T12:11:54;6.93;;;1.00;;
64799;SDS011;51233;51.982;4.594;2023-08-08T12:14:54;2.60;;;0.77;;
64799;SDS011;51233;51.982;4.594;2023-08-08T12:17:54;3.28;;;1.02;;
64799;SDS011;51233;51.982;4.594;2023-08-08T12:20:55;0.87;;;0.63;;
64799;SDS011;51233;51.982;4.594;2023-08-08T12:23:55;2.23;;;0.90;;
64799;SDS011;51233;51.982;4.594;2023-08-08T12:26:55;4.13;;;1.10;;
64799;SDS011;51233;51.982;4.594;2023-08-08T12:29:58;3.73;;;0.80;;
64799;SDS011;51233;51.982;4.594;2023-08-08T12:32:59;1.20;;;0.80;;
64799;SDS011;51233;51.982;4.594;2023-08-08T12:35:59;4.47;;;0.93;;
64799;SDS011;51233;51.982;4.594;2023-08-08T12:38:59;1.23;;;0.87;;
64799;SDS011;51233;51.982;4.594;2023-08-08T12:41:59;2.17;;;1.13;;
64799;SDS011;51233;51.982;4.594;2023-08-08T12:45:00;2.00;;;1.13;;
64799;SDS011;51233;51.982;4.594;2023-08-08T12:48:00;3.53;;;1.37;;
64799;SDS011;51233;51.982;4.594;2023-08-08T12:51:01;1.23;;;0.80;;
64799;SDS011;51233;51.982;4.594;2023-08-08T12:54:01;2.67;;;0.93;;
64799;SDS011;51233;51.982;4.594;2023-08-08T12:57:02;3.80;;;0.90;;
64799;SDS011;51233;51.982;4.594;2023-08-08T13:00:02;3.40;;;1.00;;
64799;SDS011;51233;51.982;4.594;2023-08-08T13:03:03;1.58;;;0.68;;
64799;SDS011;51233;51.982;4.594;2023-08-08T13:06:03;3.00;;;0.90;;
64799;SDS011;51233;51.982;4.594;2023-08-08T13:09:04;1.13;;;0.60;;
64799;SDS011;51233;51.982;4.594;2023-08-08T13:12:07;2.35;;;0.77;;
64799;SDS011;51233;51.982;4.594;2023-08-08T13:15:07;0.90;;;0.90;;
64799;SDS011;51233;51.982;4.594;2023-08-08T13:18:07;1.73;;;0.90;;
64799;SDS011;51233;51.982;4.594;2023-08-08T13:21:08;1.53;;;1.10;;
64799;SDS011;51233;51.982;4.594;2023-08-08T13:24:10;3.17;;;1.05;;
64799;SDS011;51233;51.982;4.594;2023-08-08T13:27:12;0.68;;;0.60;;
64799;SDS011;51233;51.982;4.594;2023-08-08T13:30:13;2.40;;;1.07;;
64799;SDS011;51233;51.982;4.594;2023-08-08T13:33:15;1.25;;;1.00;;
64799;SDS011;51233;51.982;4.594;2023-08-08T13:36:18;2.70;;;0.80;;
64799;SDS011;51233;51.982;4.594;2023-08-08T13:39:19;2.03;;;1.20;;
64799;SDS011;51233;51.982;4.594;2023-08-08T13:42:19;1.63;;;0.90;;
64799;SDS011;51233;51.982;4.594;2023-08-08T13:45:19;2.63;;;1.20;;
64799;SDS011;51233;51.982;4.594;2023-08-08T13:48:20;4.65;;;1.27;;
64799;SDS011;51233;51.982;4.594;2023-08-08T13:51:24;2.33;;;1.40;;
64799;SDS011;51233;51.982;4.594;2023-08-08T13:54:24;3.33;;;1.20;;
64799;SDS011;51233;51.982;4.594;2023-08-08T13:57:24;2.78;;;1.05;;
64799;SDS011;51233;51.982;4.594;2023-08-08T14:00:24;1.80;;;0.80;;
64799;SDS011;51233;51.982;4.594;2023-08-08T14:03:25;2.75;;;1.33;;
64799;SDS011;51233;51.982;4.594;2023-08-08T14:06:25;1.70;;;1.20;;
64799;SDS011;51233;51.982;4.594;2023-08-08T14:09:25;3.80;;;1.13;;
64799;SDS011;51233;51.982;4.594;2023-08-08T14:12:25;2.67;;;1.30;;
64799;SDS011;51233;51.982;4.594;2023-08-08T14:15:26;0.70;;;0.70;;
64799;SDS011;51233;51.982;4.594;2023-08-08T14:18:26;2.83;;;1.10;;
64799;SDS011;51233;51.982;4.594;2023-08-08T14:21:26;2.63;;;1.20;;
64799;SDS011;51233;51.982;4.594;2023-08-08T14:24:26;2.27;;;1.10;;
64799;SDS011;51233;51.982;4.594;2023-08-08T14:27:26;2.30;;;1.23;;
64799;SDS011;51233;51.982;4.594;2023-08-08T14:30:27;2.23;;;1.17;;
64799;SDS011;51233;51.982;4.594;2023-08-08T14:33:28;2.28;;;1.15;;
64799;SDS011;51233;51.982;4.594;2023-08-08T14:36:28;3.40;;;1.40;;
64799;SDS011;51233;51.982;4.594;2023-08-08T14:39:28;3.27;;;1.20;;
64799;SDS011;51233;51.982;4.594;2023-08-08T14:42:31;2.03;;;0.98;;
64799;SDS011;51233;51.982;4.594;2023-08-08T14:45:31;1.83;;;1.17;;
64799;SDS011;51233;51.982;4.594;2023-08-08T14:48:32;0.70;;;0.70;;
64799;SDS011;51233;51.982;4.594;2023-08-08T14:51:32;4.20;;;1.50;;
64799;SDS011;51233;51.982;4.594;2023-08-08T14:54:32;1.73;;;1.03;;
64799;SDS011;51233;51.982;4.594;2023-08-08T14:57:32;4.23;;;1.20;;
64799;SDS011;51233;51.982;4.594;2023-08-08T15:00:33;2.63;;;1.00;;
64799;SDS011;51233;51.982;4.594;2023-08-08T15:03:33;2.80;;;1.10;;
64799;SDS011;51233;51.982;4.594;2023-08-08T15:06:35;1.63;;;1.07;;
64799;SDS011;51233;51.982;4.594;2023-08-08T15:09:36;1.63;;;1.10;;
64799;SDS011;51233;51.982;4.594;2023-08-08T15:12:37;1.73;;;1.10;;
64799;SDS011;51233;51.982;4.594;2023-08-08T15:15:40;4.37;;;1.47;;
64799;SDS011;51233;51.982;4.594;2023-08-08T15:18:40;1.75;;;1.15;;
64799;SDS011;51233;51.982;4.594;2023-08-08T15:21:44;3.23;;;1.40;;
64799;SDS011;51233;51.982;4.594;2023-08-08T15:24:44;4.97;;;1.40;;
64799;SDS011;51233;51.982;4.594;2023-08-08T15:27:44;4.93;;;1.40;;
64799;SDS011;51233;51.982;4.594;2023-08-08T15:30:47;5.20;;;1.50;;
64799;SDS011;51233;51.982;4.594;2023-08-08T15:33:48;2.77;;;1.70;;
64799;SDS011;51233;51.982;4.594;2023-08-08T15:36:48;3.17;;;1.23;;
64799;SDS011;51233;51.982;4.594;2023-08-08T15:39:49;3.72;;;1.63;;
64799;SDS011;51233;51.982;4.594;2023-08-08T15:42:49;2.70;;;1.10;;
64799;SDS011;51233;51.982;4.594;2023-08-08T15:45:49;2.95;;;1.17;;
64799;SDS011;51233;51.982;4.594;2023-08-08T15:48:52;3.10;;;1.02;;
64799;SDS011;51233;51.982;4.594;2023-08-08T15:51:53;3.40;;;1.40;;
64799;SDS011;51233;51.982;4.594;2023-08-08T15:54:56;4.68;;;1.60;;
64799;SDS011;51233;51.982;4.594;2023-08-08T15:57:57;4.07;;;1.60;;
64799;SDS011;51233;51.982;4.594;2023-08-08T16:00:57;3.60;;;1.50;;
64799;SDS011;51233;51.982;4.594;2023-08-08T16:03:57;2.50;;;1.23;;
64799;SDS011;51233;51.982;4.594;2023-08-08T16:06:58;2.87;;;1.33;;
64799;SDS011;51233;51.982;4.594;2023-08-08T16:09:58;2.23;;;1.13;;
64799;SDS011;51233;51.982;4.594;2023-08-08T16:12:58;4.63;;;1.38;;
64799;SDS011;51233;51.982;4.594;2023-08-08T16:15:58;2.67;;;0.93;;
64799;SDS011;51233;51.982;4.594;2023-08-08T16:19:02;2.42;;;1.30;;
64799;SDS011;51233;51.982;4.594;2023-08-08T16:22:03;3.17;;;1.45;;
64799;SDS011;51233;51.982;4.594;2023-08-08T16:25:05;6.40;;;1.40;;
64799;SDS011;51233;51.982;4.594;2023-08-08T16:28:06;4.57;;;1.50;;
64799;SDS011;51233;51.982;4.594;2023-08-08T16:31:06;4.70;;;1.60;;
64799;SDS011;51233;51.982;4.594;2023-08-08T16:34:06;2.67;;;1.50;;
64799;SDS011;51233;51.982;4.594;2023-08-08T16:37:07;3.78;;;1.70;;
64799;SDS011;51233;51.982;4.594;2023-08-08T16:40:07;4.20;;;1.60;;
64799;SDS011;51233;51.982;4.594;2023-08-08T16:43:08;6.93;;;1.57;;
64799;SDS011;51233;51.982;4.594;2023-08-08T16:46:08;6.77;;;1.83;;
64799;SDS011;51233;51.982;4.594;2023-08-08T16:49:08;3.17;;;1.90;;
64799;SDS011;51233;51.982;4.594;2023-08-08T16:52:09;3.17;;;1.70;;
64799;SDS011;51233;51.982;4.594;2023-08-08T16:55:09;4.27;;;1.60;;
64799;SDS011;51233;51.982;4.594;2023-08-08T16:58:11;4.90;;;1.92;;
64799;SDS011;51233;51.982;4.594;2023-08-08T17:01:12;2.97;;;1.90;;
64799;SDS011;51233;51.982;4.594;2023-08-08T17:04:12;3.57;;;1.40;;
64799;SDS011;51233;51.982;4.594;2023-08-08T17:07:13;3.63;;;1.90;;
64799;SDS011;51233;51.982;4.594;2023-08-08T17:10:13;3.67;;;1.80;;
64799;SDS011;51233;51.982;4.594;2023-08-08T17:13:14;5.28;;;1.60;;
64799;SDS011;51233;51.982;4.594;2023-08-08T17:16:14;3.90;;;1.40;;
64799;SDS011;51233;51.982;4.594;2023-08-08T17:19:15;2.45;;;1.40;;
64799;SDS011;51233;51.982;4.594;2023-08-08T17:22:16;3.23;;;1.50;;
64799;SDS011;51233;51.982;4.594;2023-08-08T17:25:16;2.60;;;1.30;;
64799;SDS011;51233;51.982;4.594;2023-08-08T17:28:16;2.30;;;1.60;;
64799;SDS011;51233;51.982;4.594;2023-08-08T17:31:17;3.55;;;1.40;;
64799;SDS011;51233;51.982;4.594;2023-08-08T17:34:20;3.03;;;1.40;;
64799;SDS011;51233;51.982;4.594;2023-08-08T17:37:20;2.58;;;1.25;;
64799;SDS011;51233;51.982;4.594;2023-08-08T17:40:21;2.13;;;1.30;;
64799;SDS011;51233;51.982;4.594;2023-08-08T17:43:21;5.35;;;1.80;;
64799;SDS011;51233;51.982;4.594;2023-08-08T17:46:22;2.85;;;1.48;;
64799;SDS011;51233;51.982;4.594;2023-08-08T17:49:22;3.47;;;1.40;;
64799;SDS011;51233;51.982;4.594;2023-08-08T17:52:25;1.85;;;1.23;;
64799;SDS011;51233;51.982;4.594;2023-08-08T17:55:25;5.27;;;1.40;;
64799;SDS011;51233;51.982;4.594;2023-08-08T17:58:26;2.07;;;1.10;;
64799;SDS011;51233;51.982;4.594;2023-08-08T18:01:29;3.53;;;1.23;;
64799;SDS011;51233;51.982;4.594;2023-08-08T18:04:36;1.33;;;1.10;;
64799;SDS011;51233;51.982;4.594;2023-08-08T18:07:39;2.17;;;1.50;;
64799;SDS011;51233;51.982;4.594;2023-08-08T18:10:39;1.83;;;1.20;;
64799;SDS011;51233;51.982;4.594;2023-08-08T18:13:40;2.93;;;1.10;;